Time;durP1;ratioP1;P1;durP2;ratioP2;P2;SDS_P1;SDS_P2;PMS_P1;PMS_P2;Temp;Humidity;BMP_temperature;BMP_pressure;BME280_temperature;BME280_humidity;BME280_pressure;Samples;Min_cycle;Max_cycle;Signal;HPM_P1;HPM_P2
2020/12/06 00:09:12;;;;;;;29.25;19.00;;;;;;;5.33;79.01;99036.59;516759;1098;65576;-62
2020/12/06 00:19:15;;;;;;;29.80;18.83;;;;;;;5.29;78.90;99035.91;516804;1098;66495;-61
2020/12/06 00:29:19;;;;;;;25.30;17.33;;;;;;;5.26;79.75;99037.81;516755;1098;65290;-61
2020/12/06 00:39:23;;;;;;;28.07;19.00;;;;;;;5.22;80.12;99037.12;516758;1098;65195;-60
2020/12/06 00:49:27;;;;;;;27.70;18.70;;;;;;;5.16;80.11;99050.47;516790;1098;65214;-61
2020/12/06 00:59:32;;;;;;;28.27;18.27;;;;;;;5.14;79.91;99055.74;516767;1098;65522;-59
2020/12/06 01:09:36;;;;;;;23.80;16.93;;;;;;;5.15;80.21;99057.42;516676;1098;65252;-60
2020/12/06 01:19:40;;;;;;;24.80;18.20;;;;;;;5.14;80.38;99045.33;516851;1098;65153;-59
2020/12/06 01:29:44;;;;;;;21.90;17.47;;;;;;;5.09;81.06;99044.73;516957;1098;65272;-60
2020/12/06 01:39:48;;;;;;;22.33;15.93;;;;;;;5.00;80.53;99051.22;516803;1098;65162;-59
2020/12/06 01:49:53;;;;;;;22.13;17.27;;;;;;;4.97;80.65;99066.16;516765;1098;65947;-60
2020/12/06 01:59:57;;;;;;;22.83;17.10;;;;;;;4.90;80.96;99074.25;516727;1090;65192;-60
2020/12/06 02:10:01;;;;;;;26.50;17.67;;;;;;;4.80;81.17;99051.38;516857;1090;65173;-60
2020/12/06 02:20:06;;;;;;;22.83;17.57;;;;;;;4.73;81.27;99064.67;517240;1098;65175;-60
2020/12/06 02:30:10;;;;;;;22.63;17.13;;;;;;;4.66;82.07;99070.25;517139;1093;65178;-60
2020/12/06 02:40:13;;;;;;;27.07;17.47;;;;;;;4.53;82.09;99043.98;516804;1090;65150;-60
2020/12/06 02:50:17;;;;;;;24.53;18.37;;;;;;;4.51;82.38;99051.02;517424;1098;65622;-60
2020/12/06 03:00:21;;;;;;;23.43;17.93;;;;;;;4.48;82.27;99037.25;517150;1098;65252;-59
2020/12/06 03:10:25;;;;;;;19.67;16.23;;;;;;;4.48;82.77;99039.85;516861;1090;65144;-61
2020/12/06 03:20:29;;;;;;;25.50;16.83;;;;;;;4.46;83.42;99049.48;517123;1098;65465;-61
2020/12/06 03:30:33;;;;;;;20.70;15.00;;;;;;;4.44;83.25;99055.66;517321;1098;65308;-61
2020/12/06 03:40:37;;;;;;;21.10;15.90;;;;;;;4.49;83.50;99051.93;517036;1098;65150;-60
2020/12/06 03:50:41;;;;;;;25.20;16.97;;;;;;;4.52;83.57;99050.95;517238;1098;65249;-61
2020/12/06 04:00:45;;;;;;;19.50;15.00;;;;;;;4.55;83.03;99037.80;517001;1090;65161;-61
2020/12/06 04:10:49;;;;;;;22.07;15.00;;;;;;;4.57;83.73;99050.73;516574;1090;65172;-59
2020/12/06 04:20:53;;;;;;;21.63;16.40;;;;;;;4.56;83.43;99033.42;517216;1098;65179;-59
2020/12/06 04:30:57;;;;;;;20.90;14.53;;;;;;;4.55;83.63;99056.00;517031;1098;65406;-61
2020/12/06 04:41:01;;;;;;;18.10;13.90;;;;;;;4.52;83.50;99063.95;516924;1098;65157;-60
2020/12/06 04:51:07;;;;;;;21.35;15.15;;;;;;;4.50;83.65;99055.36;517179;1098;65150;-60
2020/12/06 05:01:11;;;;;;;23.53;14.10;;;;;;;4.48;83.71;99076.25;517046;1098;65593;-61
2020/12/06 05:11:16;;;;;;;17.97;13.83;;;;;;;4.48;84.28;99072.80;517359;1090;65604;-60
2020/12/06 05:21:32;;;;;;;17.77;13.30;;;;;;;4.48;84.26;99077.99;516957;1090;65152;-60
2020/12/06 05:31:36;;;;;;;22.13;15.50;;;;;;;4.50;84.63;99065.76;517345;1098;65222;-60
2020/12/06 05:41:42;;;;;;;21.70;14.57;;;;;;;4.47;84.95;99056.37;517145;1098;65208;-60
2020/12/06 05:51:51;;;;;;;22.90;14.05;;;;;;;4.41;84.87;99069.64;517230;1098;65514;-60
2020/12/06 06:01:56;;;;;;;20.30;15.00;;;;;;;4.38;85.17;99095.80;517127;1098;65185;-59
2020/12/06 06:12:33;;;;;;;18.13;13.70;;;;;;;4.35;84.58;99082.95;517362;1098;65178;-60
2020/12/06 06:22:41;;;;;;;17.40;12.70;;;;;;;4.36;85.07;99105.42;516825;1098;65176;-59
2020/12/06 06:32:44;;;;;;;;;;;;;;;4.35;84.49;99091.57;517100;1098;65584;-60
2020/12/06 06:42:47;;;;;;;19.40;14.77;;;;;;;4.34;84.62;99121.08;516502;1098;65234;-60
2020/12/06 06:52:56;;;;;;;20.73;15.40;;;;;;;4.42;84.24;99135.49;516400;1098;65715;-59
2020/12/06 07:03:00;;;;;;;17.57;13.07;;;;;;;4.46;84.84;99124.03;517449;1098;65147;-60
2020/12/06 07:13:06;;;;;;;19.75;14.75;;;;;;;4.64;83.84;99119.72;516691;1098;65147;-59
2020/12/06 07:23:11;;;;;;;18.07;14.43;;;;;;;5.01;83.73;99132.73;507177;1098;10003922;-59
2020/12/06 07:33:14;;;;;;;20.70;13.55;;;;;;;5.27;82.89;99123.66;517144;1098;65275;-61
2020/12/06 07:43:18;;;;;;;15.25;12.95;;;;;;;5.56;82.54;99138.74;516954;1098;65153;-60
2020/12/06 07:53:22;;;;;;;15.93;13.03;;;;;;;6.37;81.30;99111.13;517049;1098;65329;-59
2020/12/06 08:03:26;;;;;;;16.70;13.00;;;;;;;6.37;80.41;99126.78;516556;1098;65248;-63
2020/12/06 08:13:30;;;;;;;15.70;11.77;;;;;;;6.01;80.77;99142.54;516569;1090;65640;-59
2020/12/06 08:23:36;;;;;;;15.53;11.97;;;;;;;6.93;80.17;99131.56;516532;1098;65246;-60
2020/12/06 08:33:40;;;;;;;16.87;12.23;;;;;;;8.68;78.03;99129.02;517008;1098;65167;-61
2020/12/06 08:43:52;;;;;;;15.13;12.30;;;;;;;10.28;73.86;99133.33;516790;1098;65172;-61
2020/12/06 08:53:56;;;;;;;14.60;12.37;;;;;;;9.27;73.41;99152.37;517015;1090;65165;-61
2020/12/06 09:04:01;;;;;;;14.47;11.93;;;;;;;8.42;74.13;99114.92;516570;1090;65193;-62
2020/12/06 09:14:05;;;;;;;14.00;11.23;;;;;;;7.74;74.93;99108.64;516362;1098;65319;-60
2020/12/06 09:24:09;;;;;;;17.57;12.73;;;;;;;7.53;75.15;99099.35;517006;1098;65598;-65
2020/12/06 09:34:13;;;;;;;13.90;11.07;;;;;;;7.26;76.08;99105.28;516305;1090;65179;-67
2020/12/06 09:44:17;;;;;;;14.37;11.83;;;;;;;7.37;76.12;99080.30;516463;1098;65591;-59
2020/12/06 09:54:21;;;;;;;13.73;11.20;;;;;;;7.33;75.91;99068.34;516469;1093;65479;-61
2020/12/06 10:04:25;;;;;;;12.17;10.03;;;;;;;7.39;75.81;99058.40;516438;1098;65141;-61
2020/12/06 10:14:29;;;;;;;16.53;12.03;;;;;;;7.31;75.26;99057.15;516598;1090;65530;-58
2020/12/06 10:24:33;;;;;;;12.05;10.50;;;;;;;7.15;75.48;99039.78;516135;1098;65172;-64
2020/12/06 10:34:37;;;;;;;15.60;11.90;;;;;;;6.92;75.92;99047.19;516343;1098;65683;-65
2020/12/06 10:44:41;;;;;;;15.23;12.60;;;;;;;6.71;76.28;99016.17;516323;1098;65157;-66
2020/12/06 10:54:45;;;;;;;16.27;10.50;;;;;;;6.76;75.97;99015.91;516291;1098;65294;-69
2020/12/06 11:04:49;;;;;;;13.20;10.30;;;;;;;6.83;76.21;99035.52;517185;1090;65184;-67
2020/12/06 11:14:53;;;;;;;11.77;9.47;;;;;;;6.87;76.26;99004.86;516533;1098;65524;-62
2020/12/06 11:24:58;;;;;;;12.70;10.20;;;;;;;6.95;75.64;99015.67;516524;1098;65565;-67
2020/12/06 11:35:02;;;;;;;13.23;11.50;;;;;;;6.90;75.92;98985.55;516610;1098;65252;-66
2020/12/06 11:45:06;;;;;;;17.40;10.20;;;;;;;6.84;75.57;99002.41;516584;1090;65211;-65
2020/12/06 11:55:10;;;;;;;16.33;12.03;;;;;;;6.89;75.51;98984.73;516301;1098;65213;-70
2020/12/06 12:05:14;;;;;;;11.23;9.83;;;;;;;6.89;75.38;98984.73;516661;1090;65246;-69
2020/12/06 12:15:18;;;;;;;13.03;9.93;;;;;;;6.80;75.50;99000.92;516372;1090;65203;-72
2020/12/06 12:25:22;;;;;;;14.43;9.80;;;;;;;6.66;75.32;98997.34;517789;1098;65165;-73
2020/12/06 12:35:26;;;;;;;12.33;10.30;;;;;;;6.66;74.94;98980.84;516663;1098;65235;-61
2020/12/06 12:45:31;;;;;;;11.30;9.35;;;;;;;6.55;75.13;98994.50;516986;1098;65143;-64
2020/12/06 12:55:35;;;;;;;14.40;10.93;;;;;;;6.40;75.11;98978.78;517153;1098;65518;-63
2020/12/06 13:05:39;;;;;;;12.95;9.80;;;;;;;6.24;75.24;98973.61;516987;1090;65500;-62
2020/12/06 13:15:43;;;;;;;11.80;9.67;;;;;;;6.15;75.28;98966.30;516874;1090;65153;-63
2020/12/06 13:25:48;;;;;;;12.53;9.60;;;;;;;6.06;75.62;98988.52;516741;1090;65252;-60
2020/12/06 13:35:52;;;;;;;12.43;9.13;;;;;;;5.97;76.12;99000.23;516577;1098;65169;-61
2020/12/06 13:45:55;;;;;;;12.73;9.73;;;;;;;5.78;75.58;98996.96;517040;1090;65255;-60
2020/12/06 13:56:00;;;;;;;13.60;10.50;;;;;;;5.60;75.77;98994.41;516754;1098;65195;-61
2020/12/06 14:06:04;;;;;;;13.13;9.57;;;;;;;5.38;75.71;98982.52;516838;1098;65496;-61
2020/12/06 14:16:08;;;;;;;12.47;10.40;;;;;;;5.32;75.64;98996.69;516617;1098;65150;-62
2020/12/06 14:26:12;;;;;;;14.87;11.67;;;;;;;5.11;75.92;98996.05;516920;1098;65181;-60
2020/12/06 14:36:21;;;;;;;13.13;10.40;;;;;;;4.90;76.38;98990.15;516644;1098;65254;-62
2020/12/06 14:46:24;;;;;;;14.17;10.97;;;;;;;4.65;76.79;99011.36;516741;1098;65153;-59
2020/12/06 14:56:29;;;;;;;15.63;10.73;;;;;;;4.47;77.24;99012.17;516730;1098;65141;-60
2020/12/06 15:06:34;;;;;;;17.67;12.13;;;;;;;4.31;77.29;99012.06;516595;1098;65398;-68
2020/12/06 15:16:39;;;;;;;16.45;11.60;;;;;;;4.11;78.06;98996.56;516459;1093;65234;-65
2020/12/06 15:26:43;;;;;;;15.03;11.07;;;;;;;3.91;77.97;98990.53;507689;1098;10001665;-61
2020/12/06 15:36:47;;;;;;;15.30;11.65;;;;;;;3.59;78.51;98987.67;515874;1098;65176;-59
2020/12/06 15:46:53;;;;;;;14.60;10.70;;;;;;;3.33;78.37;98974.08;516992;1093;65167;-68
2020/12/06 15:56:58;;;;;;;15.57;12.70;;;;;;;3.13;78.72;98995.70;516487;1098;65153;-59
2020/12/06 16:07:01;;;;;;;13.67;10.93;;;;;;;2.96;79.07;99006.80;516292;1098;65181;-64
2020/12/06 16:17:05;;;;;;;19.53;11.80;;;;;;;2.75;79.53;99022.34;516346;1098;65169;-65
2020/12/06 16:27:09;;;;;;;18.13;12.53;;;;;;;2.58;79.92;99005.73;516389;1092;65256;-67
2020/12/06 16:37:13;;;;;;;15.70;11.67;;;;;;;2.50;80.02;99020.74;516407;1090;65359;-63
2020/12/06 16:47:17;;;;;;;15.47;11.27;;;;;;;2.41;80.12;99015.92;516312;1093;65276;-60
2020/12/06 16:57:21;;;;;;;16.10;10.93;;;;;;;2.31;80.10;99024.08;516302;1098;65169;-62
2020/12/06 17:07:26;;;;;;;13.70;10.10;;;;;;;2.21;79.74;99026.16;517924;1096;66581;-68
2020/12/06 17:17:32;;;;;;;17.00;11.70;;;;;;;2.10;80.43;99007.61;516658;1097;65533;-62
2020/12/06 17:27:36;;;;;;;17.30;11.80;;;;;;;2.01;80.35;99016.58;517347;1090;65305;-68
2020/12/06 17:37:40;;;;;;;14.57;10.87;;;;;;;1.95;80.75;99017.66;516645;1097;65433;-68
2020/12/06 17:47:45;;;;;;;18.25;13.30;;;;;;;1.95;80.79;99022.83;516237;1097;65253;-64
2020/12/06 17:57:48;;;;;;;18.63;13.20;;;;;;;1.92;80.63;99032.45;516136;1096;65566;-63
2020/12/06 18:07:52;;;;;;;15.70;12.53;;;;;;;1.89;80.90;99033.41;516101;1090;65179;-64
2020/12/06 18:17:56;;;;;;;14.33;10.13;;;;;;;1.93;80.94;99032.41;516308;1097;65169;-62
2020/12/06 18:28:01;;;;;;;15.35;11.40;;;;;;;2.03;80.96;99019.13;516174;1097;65229;-68
2020/12/06 18:38:05;;;;;;;23.53;15.87;;;;;;;2.00;80.82;99019.22;516348;1090;65232;-61
2020/12/06 18:48:09;;;;;;;20.47;15.77;;;;;;;1.99;80.92;99005.44;516371;1090;65253;-63
2020/12/06 18:58:17;;;;;;;23.20;17.00;;;;;;;1.98;80.92;98993.40;516439;1090;65259;-69
2020/12/06 19:08:22;;;;;;;21.23;15.30;;;;;;;1.91;81.26;98994.52;516160;1090;65252;-65
2020/12/06 19:18:26;;;;;;;20.67;15.67;;;;;;;1.86;81.05;98996.45;521651;1090;65597;-65
2020/12/06 19:28:30;;;;;;;21.27;15.23;;;;;;;1.84;81.20;99004.27;519353;1096;65226;-65
2020/12/06 19:38:35;;;;;;;22.23;13.90;;;;;;;1.91;81.17;99010.91;516553;1096;65492;-64
2020/12/06 19:48:39;;;;;;;19.70;14.17;;;;;;;1.98;81.10;99008.08;516570;1095;65181;-64
2020/12/06 19:58:43;;;;;;;21.17;15.77;;;;;;;1.91;80.98;99033.36;516365;1096;65406;-64
2020/12/06 20:08:48;;;;;;;19.10;14.17;;;;;;;1.89;81.11;99020.46;516516;1090;65163;-63
2020/12/06 20:18:52;;;;;;;18.87;12.33;;;;;;;1.82;80.56;98990.55;516400;1090;65299;-64
2020/12/06 20:28:59;;;;;;;18.63;12.80;;;;;;;1.75;80.97;99005.47;516425;1090;65583;-63
2020/12/06 20:39:02;;;;;;;;;;;;;;;1.68;80.89;98999.67;517133;1090;65342;-64
2020/12/06 20:49:06;;;;;;;21.60;14.50;;;;;;;1.66;81.05;98996.27;516210;1097;65823;-65
2020/12/06 20:59:11;;;;;;;19.97;13.50;;;;;;;1.55;81.06;99026.88;516284;1097;65256;-65
2020/12/06 21:09:14;;;;;;;22.43;15.17;;;;;;;1.52;81.36;99032.17;516065;1090;65178;-64
2020/12/06 21:19:18;;;;;;;18.93;14.10;;;;;;;1.52;80.51;99025.27;516732;1098;65156;-65
2020/12/06 21:29:22;;;;;;;20.70;14.67;;;;;;;1.47;80.86;99005.63;517074;1096;65929;-65
2020/12/06 21:39:27;;;;;;;19.53;13.40;;;;;;;1.42;80.99;99003.20;516998;1095;65181;-61
2020/12/06 21:49:31;;;;;;;19.77;14.03;;;;;;;1.38;81.24;99009.37;516713;1097;65729;-62
2020/12/06 21:59:35;;;;;;;20.37;16.50;;;;;;;1.33;81.79;98983.69;516835;1090;65222;-64
2020/12/06 22:09:40;;;;;;;21.33;14.43;;;;;;;1.31;80.91;98988.05;516857;1097;65637;-63
2020/12/06 22:19:44;;;;;;;21.87;14.10;;;;;;;1.24;81.14;98987.42;517109;1090;65173;-70
2020/12/06 22:29:48;;;;;;;19.50;14.80;;;;;;;1.19;81.55;98965.21;517351;1097;65282;-68
2020/12/06 22:39:52;;;;;;;21.35;14.00;;;;;;;1.17;81.44;98973.05;517368;1097;65185;-69
2020/12/06 22:49:56;;;;;;;17.93;12.77;;;;;;;1.12;81.49;98956.83;516434;1090;65198;-69
2020/12/06 23:00:00;;;;;;;23.33;13.97;;;;;;;1.16;82.12;98981.70;516933;1090;65246;-68
2020/12/06 23:10:05;;;;;;;18.83;12.77;;;;;;;1.32;81.65;98974.22;516728;1097;65533;-68
2020/12/06 23:20:09;;;;;;;18.53;12.47;;;;;;;1.39;82.00;98964.52;517398;1090;65211;-69
2020/12/06 23:30:14;;;;;;;16.85;12.50;;;;;;;1.47;81.44;98946.12;516933;1097;65201;-69
2020/12/06 23:40:18;;;;;;;17.20;12.55;;;;;;;1.46;81.48;98931.50;516869;1096;65213;-69
2020/12/06 23:50:23;;;;;;;21.10;14.00;;;;;;;1.39;81.42;98941.23;516717;1097;65572;-69
